createdAt,value
2024-01-25T00:00:33.035Z,102426.47
2024-01-25T00:03:03.025Z,102435.69
2024-01-25T00:05:33.656Z,102427.56
2024-01-25T00:08:06.462Z,102437.88
2024-01-25T00:10:36.438Z,102441.69
2024-01-25T00:13:06.415Z,102441.69
2024-01-25T00:15:36.340Z,102438.13
2024-01-25T00:18:06.434Z,102432.97
2024-01-25T00:20:36.587Z,102439.47
2024-01-25T00:23:09.033Z,102442.75
2024-01-25T00:25:38.833Z,102451.16
2024-01-25T00:28:09.138Z,102459.31
2024-01-25T00:30:39.119Z,102452.53
2024-01-25T00:33:09.491Z,102457.94
2024-01-25T00:35:43.464Z,102456.31
2024-01-25T00:38:17.132Z,102458.50
2024-01-25T00:40:47.865Z,102458.50
2024-01-25T00:43:18.568Z,102442.47
2024-01-25T00:45:49.148Z,102441.94
2024-01-25T00:48:19.658Z,102438.69
2024-01-25T00:50:50.126Z,102444.38
2024-01-25T00:53:24.336Z,102441.91
2024-01-25T00:55:54.941Z,102443.00
2024-01-25T00:58:25.823Z,102451.16
2024-01-25T01:00:56.548Z,102446.53
2024-01-25T01:03:27.624Z,102443.25
2024-01-25T01:05:59.349Z,102441.09
2024-01-25T01:08:32.884Z,102438.94
2024-01-25T01:11:02.839Z,102438.66
2024-01-25T01:13:32.933Z,102447.63
2024-01-25T01:16:02.921Z,102450.88
2024-01-25T01:18:33.005Z,102453.56
2024-01-25T01:21:02.893Z,102449.50
2024-01-25T01:23:35.269Z,102460.63
2024-01-25T01:26:05.118Z,102457.34
2024-01-25T01:28:34.919Z,102467.63
2024-01-25T01:31:04.742Z,102471.16
2024-01-25T01:33:34.790Z,102474.13
2024-01-25T01:36:04.741Z,102476.84
2024-01-25T01:38:37.158Z,102479.50
2024-01-25T01:41:07.328Z,102483.31
2024-01-25T01:43:37.140Z,102485.72
2024-01-25T01:46:13.950Z,102486.00
2024-01-25T01:48:44.296Z,102482.75
2024-01-25T01:51:14.802Z,102479.47
2024-01-25T01:53:47.718Z,102478.63
2024-01-25T01:56:21.296Z,102486.22
2024-01-25T01:58:52.492Z,102493.53
2024-01-25T02:01:23.131Z,102491.94
2024-01-25T02:03:53.171Z,102491.41
2024-01-25T02:06:23.728Z,102491.97
2024-01-25T02:08:59.808Z,102495.22
2024-01-25T02:11:29.934Z,102501.75
2024-01-25T02:14:00.365Z,102502.81
2024-01-25T02:16:30.556Z,102502.00
2024-01-25T02:19:00.821Z,102512.59
2024-01-25T02:21:30.856Z,102509.28
2024-01-25T02:24:03.709Z,102516.31
2024-01-25T02:26:33.965Z,102513.06
2024-01-25T02:29:06.140Z,102520.59
2024-01-25T02:31:36.025Z,102529.81
2024-01-25T02:34:06.080Z,102525.75
2024-01-25T02:36:36.220Z,102523.31
2024-01-25T02:39:09.229Z,102524.34
2024-01-25T02:41:39.049Z,102523.28
2024-01-25T02:44:08.848Z,102523.81
2024-01-25T02:46:39.247Z,102525.94
2024-01-25T02:49:09.402Z,102526.47
2024-01-25T02:51:39.455Z,102521.84
2024-01-25T02:54:11.938Z,102519.16
2024-01-25T02:56:41.799Z,102521.59
2024-01-25T02:59:11.693Z,102523.25
2024-01-25T03:01:43.021Z,102523.78
2024-01-25T03:04:13.279Z,102528.06
2024-01-25T03:06:43.363Z,102529.69
2024-01-25T03:09:16.184Z,102535.06
2024-01-25T03:11:46.156Z,102538.03
2024-01-25T03:14:16.112Z,102540.44
2024-01-25T03:16:45.959Z,102539.06
2024-01-25T03:19:19.214Z,102539.56
2024-01-25T03:21:51.736Z,102544.16
2024-01-25T03:24:25.258Z,102545.75
2024-01-25T03:26:55.519Z,102540.84
2024-01-25T03:29:27.827Z,102548.41
2024-01-25T03:31:59.218Z,102552.72
2024-01-25T03:34:29.653Z,102554.03
2024-01-25T03:36:59.798Z,102548.88
2024-01-25T03:39:32.342Z,102543.72
2024-01-25T03:42:02.294Z,102549.41
2024-01-25T03:44:47.491Z,102555.91
2024-01-25T03:47:17.422Z,102550.50
2024-01-25T03:49:48.269Z,102551.84
2024-01-25T03:52:19.977Z,102554.00
2024-01-25T03:54:55.308Z,102557.47
2024-01-25T03:57:25.473Z,102563.34
2024-01-25T03:59:55.391Z,102560.59
2024-01-25T04:02:25.425Z,102564.38
2024-01-25T04:04:55.454Z,102567.84
2024-01-25T04:07:25.409Z,102563.16
2024-01-25T04:09:57.957Z,102566.31
2024-01-25T04:12:28.131Z,102571.63
2024-01-25T04:14:58.459Z,102575.34
2024-01-25T04:17:32.916Z,102571.78
2024-01-25T04:20:03.185Z,102568.28
2024-01-25T04:22:33.379Z,102564.50
2024-01-25T04:25:06.137Z,102572.03
2024-01-25T04:27:46.666Z,102563.63
2024-01-25T04:30:19.876Z,102569.31
2024-01-25T04:32:51.254Z,102568.84
2024-01-25T04:35:21.879Z,102572.91
2024-01-25T04:37:52.215Z,102579.94
2024-01-25T04:40:24.795Z,102581.28
2024-01-25T04:42:54.776Z,102587.75
2024-01-25T04:45:24.670Z,102576.88
2024-01-25T04:47:54.549Z,102582.00
2024-01-25T04:50:24.728Z,102577.31
2024-01-25T04:52:54.751Z,102584.88
2024-01-25T04:55:27.251Z,102585.38
2024-01-25T04:57:57.296Z,102590.22
2024-01-25T05:00:27.862Z,102590.72
2024-01-25T05:02:57.726Z,102596.63
2024-01-25T05:05:27.579Z,102598.44
2024-01-25T05:07:57.553Z,102602.47
2024-01-25T05:10:30.478Z,102591.31
2024-01-25T05:13:00.385Z,102589.94
2024-01-25T05:15:30.604Z,102596.69
2024-01-25T05:18:00.823Z,102595.88
2024-01-25T05:20:34.417Z,102594.78
2024-01-25T05:23:05.243Z,102582.34
2024-01-25T05:25:40.117Z,102583.44
2024-01-25T05:28:10.558Z,102575.53
2024-01-25T05:30:40.713Z,102584.09
2024-01-25T05:33:13.535Z,102585.91
2024-01-25T05:35:47.788Z,102582.34
2024-01-25T05:38:25.657Z,102585.47
2024-01-25T05:40:58.339Z,102583.97
2024-01-25T05:43:28.798Z,102594.47
2024-01-25T05:46:04.620Z,102593.09
2024-01-25T05:48:36.424Z,102598.50
2024-01-25T05:51:06.700Z,102587.59
2024-01-25T05:53:39.750Z,102596.13
2024-01-25T05:56:12.501Z,102586.28
2024-01-25T05:58:43.776Z,102588.44
2024-01-25T06:01:20.516Z,102600.88
2024-01-25T06:03:50.622Z,102597.56
2024-01-25T06:06:22.212Z,102604.03
2024-01-25T06:09:02.240Z,102615.44
2024-01-25T06:11:43.835Z,102605.19
2024-01-25T06:14:19.418Z,102602.81
2024-01-25T06:16:49.706Z,102609.88
2024-01-25T06:19:23.849Z,102609.28
2024-01-25T06:21:54.389Z,102602.16
2024-01-25T06:24:27.128Z,102600.22
2024-01-25T06:26:59.600Z,102609.84
2024-01-25T06:29:31.809Z,102610.59
2024-01-25T06:32:05.662Z,102617.84
2024-01-25T06:34:37.748Z,102612.44
2024-01-25T06:37:08.154Z,102612.94
2024-01-25T06:39:38.458Z,102614.25
2024-01-25T06:42:12.417Z,102624.72
2024-01-25T06:44:42.287Z,102619.81
2024-01-25T06:47:12.139Z,102628.72
2024-01-25T06:49:42.156Z,102631.66
2024-01-25T06:52:16.200Z,102642.94
2024-01-25T06:54:57.977Z,102642.00
2024-01-25T06:57:35.368Z,102643.91
2024-01-25T07:00:05.381Z,102636.88
2024-01-25T07:02:35.552Z,102643.69
2024-01-25T07:05:06.025Z,102642.84
2024-01-25T07:07:36.352Z,102652.81
2024-01-25T07:10:19.084Z,102661.97
2024-01-25T07:12:51.866Z,102648.72
2024-01-25T07:15:22.225Z,102649.78
2024-01-25T07:17:52.070Z,102646.84
2024-01-25T07:20:24.315Z,102647.56
2024-01-25T07:22:54.573Z,102655.06
2024-01-25T07:25:24.561Z,102651.56
2024-01-25T07:27:57.166Z,102653.13
2024-01-25T07:30:27.170Z,102658.16
2024-01-25T07:32:57.092Z,102670.25
2024-01-25T07:35:39.019Z,102666.16
2024-01-25T07:38:09.441Z,102665.00
2024-01-25T07:40:44.833Z,102657.97
2024-01-25T07:43:17.817Z,102666.53
2024-01-25T07:45:52.813Z,102665.97
2024-01-25T07:48:25.981Z,102673.00
2024-01-25T07:50:55.907Z,102668.75
2024-01-25T07:53:26.087Z,102669.91
2024-01-25T07:55:55.981Z,102667.78
2024-01-25T07:58:31.874Z,102671.91
2024-01-25T08:01:01.933Z,102686.31
2024-01-25T08:03:31.952Z,102698.75
2024-01-25T08:06:02.228Z,102702.00
2024-01-25T08:08:32.534Z,102696.59
2024-01-25T08:11:02.447Z,102693.34
2024-01-25T08:13:36.024Z,102696.28
2024-01-25T08:16:08.448Z,102697.09
2024-01-25T08:18:38.459Z,102701.91
2024-01-25T08:21:08.938Z,102700.84
2024-01-25T08:23:38.799Z,102697.09
2024-01-25T08:26:10.498Z,102694.97
2024-01-25T08:28:44.729Z,102701.19
2024-01-25T08:31:15.135Z,102696.59
2024-01-25T08:33:49.295Z,102693.66
2024-01-25T08:36:21.759Z,102692.38
2024-01-25T08:38:51.754Z,102689.44
2024-01-25T08:41:21.949Z,102695.97
2024-01-25T08:43:55.072Z,102696.09
2024-01-25T08:46:25.690Z,102695.94
2024-01-25T08:48:55.756Z,102694.97
2024-01-25T08:51:28.109Z,102686.38
2024-01-25T08:53:57.957Z,102690.72
2024-01-25T08:56:27.739Z,102685.09
2024-01-25T08:59:00.253Z,102676.19
2024-01-25T09:01:30.258Z,102671.34
2024-01-25T09:04:04.449Z,102677.06
2024-01-25T09:06:34.692Z,102674.72
2024-01-25T09:09:06.891Z,102670.47
2024-01-25T09:11:37.160Z,102674.56
2024-01-25T09:14:09.921Z,102678.41
2024-01-25T09:16:40.135Z,102677.59
2024-01-25T09:19:10.907Z,102668.75
2024-01-25T09:21:44.829Z,102664.75
2024-01-25T09:24:14.787Z,102662.03
2024-01-25T09:26:44.772Z,102676.47
2024-01-25T09:29:17.626Z,102676.81
2024-01-25T09:31:47.647Z,102694.13
2024-01-25T09:34:17.955Z,102706.91
2024-01-25T09:36:48.131Z,102691.63
2024-01-25T09:39:21.104Z,102693.31
2024-01-25T09:41:51.326Z,102690.69
2024-01-25T09:44:25.156Z,102682.69
2024-01-25T09:46:56.122Z,102695.22
2024-01-25T09:49:26.344Z,102701.75
2024-01-25T09:51:57.079Z,102714.78
2024-01-25T09:54:30.887Z,102717.53
2024-01-25T09:57:00.956Z,102714.66
2024-01-25T09:59:33.510Z,102703.94
2024-01-25T10:02:06.988Z,102702.94
2024-01-25T10:04:36.980Z,102698.09
2024-01-25T10:07:07.507Z,102700.31
2024-01-25T10:09:43.755Z,102713.06
2024-01-25T10:12:18.553Z,102709.63
2024-01-25T10:14:52.820Z,102700.78
2024-01-25T10:17:22.978Z,102706.25
2024-01-25T10:19:53.117Z,102713.88
2024-01-25T10:22:24.413Z,102713.34
2024-01-25T10:24:58.075Z,102708.06
2024-01-25T10:27:28.301Z,102706.47
2024-01-25T10:30:02.240Z,102705.47
2024-01-25T10:32:32.991Z,102706.59
2024-01-25T10:35:08.758Z,102701.50
2024-01-25T10:37:42.464Z,102695.59
2024-01-25T10:40:14.934Z,102694.25
2024-01-25T10:42:45.446Z,102690.00
2024-01-25T10:45:18.409Z,102684.31
2024-01-25T10:47:53.070Z,102680.28
2024-01-25T10:50:23.600Z,102674.66
2024-01-25T10:52:53.671Z,102676.31
2024-01-25T10:55:27.133Z,102677.13
2024-01-25T10:57:57.280Z,102669.06
2024-01-25T11:00:29.864Z,102664.78
2024-01-25T11:02:59.742Z,102646.13
2024-01-25T11:05:30.414Z,102641.03
2024-01-25T11:08:00.502Z,102646.47
2024-01-25T11:10:31.247Z,102638.94
2024-01-25T11:13:03.098Z,102640.56
2024-01-25T11:15:38.120Z,102641.94
2024-01-25T11:18:12.520Z,102646.06
2024-01-25T11:20:42.966Z,102632.56
2024-01-25T11:23:12.967Z,102625.81
2024-01-25T11:25:42.848Z,102618.03
2024-01-25T11:28:12.838Z,102617.25
2024-01-25T11:30:45.878Z,102614.31
2024-01-25T11:33:16.131Z,102604.88
2024-01-25T11:35:46.115Z,102606.81
2024-01-25T11:38:16.124Z,102602.22
2024-01-25T11:40:46.349Z,102597.06
2024-01-25T11:43:16.564Z,102588.94
2024-01-25T11:45:49.120Z,102594.94
2024-01-25T11:48:19.124Z,102600.34
2024-01-25T11:50:49.859Z,102595.22
2024-01-25T11:53:19.788Z,102583.56
2024-01-25T11:55:49.595Z,102587.88
2024-01-25T11:58:19.782Z,102584.09
2024-01-25T12:00:52.770Z,102578.41
2024-01-25T12:03:23.016Z,102559.44
2024-01-25T12:05:53.056Z,102556.44
2024-01-25T12:08:23.342Z,102566.22
2024-01-25T12:10:53.613Z,102575.47
2024-01-25T12:13:23.518Z,102572.78
2024-01-25T12:15:57.276Z,102572.00
2024-01-25T12:18:27.383Z,102573.41
2024-01-25T12:20:57.760Z,102558.75
2024-01-25T12:23:33.959Z,102545.75
2024-01-25T12:26:05.716Z,102548.72
2024-01-25T12:28:36.601Z,102535.44
2024-01-25T12:31:10.634Z,102557.13
2024-01-25T12:33:42.495Z,102555.50
2024-01-25T12:36:12.818Z,102565.00
2024-01-25T12:38:42.863Z,102551.72
2024-01-25T12:41:12.932Z,102555.25
2024-01-25T12:43:45.762Z,102571.22
2024-01-25T12:46:26.361Z,102562.56
2024-01-25T12:48:59.524Z,102557.94
2024-01-25T12:51:30.328Z,102565.81
2024-01-25T12:54:00.608Z,102564.19
2024-01-25T12:56:30.609Z,102548.47
2024-01-25T12:59:00.641Z,102546.84
2024-01-25T13:01:33.570Z,102550.66
2024-01-25T13:04:04.304Z,102536.56
2024-01-25T13:06:34.323Z,102538.75
2024-01-25T13:09:05.053Z,102530.59
2024-01-25T13:11:34.917Z,102529.56
2024-01-25T13:14:04.785Z,102525.19
2024-01-25T13:16:37.331Z,102523.56
2024-01-25T13:19:10.171Z,102527.34
2024-01-25T13:21:40.803Z,102534.13
2024-01-25T13:24:11.001Z,102534.13
2024-01-25T13:26:41.014Z,102523.56
2024-01-25T13:29:14.168Z,102514.59
2024-01-25T13:31:49.102Z,102505.09
2024-01-25T13:34:19.156Z,102498.03
2024-01-25T13:36:49.150Z,102508.09
2024-01-25T13:39:19.019Z,102507.25
2024-01-25T13:41:50.134Z,102504.81
2024-01-25T13:44:20.054Z,102516.19
2024-01-25T13:46:52.594Z,102493.69
2024-01-25T13:49:22.511Z,102485.56
2024-01-25T13:51:52.507Z,102478.78
2024-01-25T13:54:22.419Z,102480.66
2024-01-25T13:56:55.053Z,102476.34
2024-01-25T13:59:26.921Z,102474.19
2024-01-25T14:01:59.639Z,102478.50
2024-01-25T14:04:29.594Z,102488.56
2024-01-25T14:07:02.686Z,102479.91
2024-01-25T14:09:33.590Z,102479.09
2024-01-25T14:12:04.128Z,102470.94
2024-01-25T14:14:34.152Z,102465.28
2024-01-25T14:17:07.323Z,102456.84
2024-01-25T14:19:37.527Z,102460.38
2024-01-25T14:22:21.005Z,102457.41
2024-01-25T14:24:57.740Z,102459.84
2024-01-25T14:27:28.219Z,102449.28
2024-01-25T14:29:58.374Z,102444.09
2024-01-25T14:32:31.053Z,102431.97
2024-01-25T14:35:01.101Z,102418.94
2024-01-25T14:37:32.776Z,102424.34
2024-01-25T14:40:16.690Z,102421.38
2024-01-25T14:42:53.725Z,102412.94
2024-01-25T14:45:24.235Z,102411.59
2024-01-25T14:47:58.925Z,102410.25
2024-01-25T14:50:28.897Z,102404.28
2024-01-25T14:52:58.739Z,102400.47
2024-01-25T14:55:28.655Z,102395.84
2024-01-25T14:57:58.532Z,102396.66
2024-01-25T15:00:28.450Z,102393.41
2024-01-25T15:03:00.965Z,102391.81
2024-01-25T15:05:30.792Z,102390.19
2024-01-25T15:08:00.851Z,102381.47
2024-01-25T15:10:32.651Z,102385.56
2024-01-25T15:13:02.858Z,102376.06
2024-01-25T15:15:35.235Z,102373.34
2024-01-25T15:18:09.148Z,102372.50
2024-01-25T15:20:39.567Z,102372.28
2024-01-25T15:23:10.292Z,102368.47
2024-01-25T15:25:40.137Z,102358.13
2024-01-25T15:28:10.227Z,102358.13
2024-01-25T15:30:40.272Z,102348.34
2024-01-25T15:33:13.048Z,102357.06
2024-01-25T15:35:42.969Z,102345.41
2024-01-25T15:38:16.770Z,102342.41
2024-01-25T15:40:46.697Z,102342.41
2024-01-25T15:43:17.386Z,102335.34
2024-01-25T15:45:47.613Z,102344.59
2024-01-25T15:48:20.137Z,102336.72
2024-01-25T15:50:51.486Z,102333.22
2024-01-25T15:53:21.274Z,102335.91
2024-01-25T15:55:53.643Z,102331.31
2024-01-25T15:58:23.771Z,102330.50
2024-01-25T16:00:53.687Z,102330.50
2024-01-25T16:03:26.329Z,102331.59
2024-01-25T16:05:57.136Z,102339.72
2024-01-25T16:08:27.268Z,102334.28
2024-01-25T16:10:57.134Z,102333.22
2024-01-25T16:13:26.969Z,102334.28
2024-01-25T16:15:57.023Z,102333.44
2024-01-25T16:18:29.712Z,102325.31
2024-01-25T16:20:59.861Z,102332.13
2024-01-25T16:23:29.869Z,102334.03
2024-01-25T16:25:59.750Z,102327.22
2024-01-25T16:28:29.607Z,102325.03
2024-01-25T16:31:01.649Z,102319.63
2024-01-25T16:33:34.394Z,102325.03
2024-01-25T16:36:04.397Z,102329.94
2024-01-25T16:38:34.473Z,102329.13
2024-01-25T16:41:04.304Z,102323.41
2024-01-25T16:43:34.280Z,102326.13
2024-01-25T16:46:04.325Z,102327.75
2024-01-25T16:48:37.069Z,102318.00
2024-01-25T16:51:07.772Z,102318.00
2024-01-25T16:53:37.623Z,102319.63
2024-01-25T16:56:08.189Z,102325.03
2024-01-25T16:58:38.040Z,102310.94
2024-01-25T17:01:09.498Z,102309.31
2024-01-25T17:03:42.145Z,102319.63
2024-01-25T17:06:12.047Z,102313.66
2024-01-25T17:08:41.991Z,102307.66
2024-01-25T17:11:12.710Z,102300.63
2024-01-25T17:13:42.610Z,102300.34
2024-01-25T17:16:12.494Z,102300.63
2024-01-25T17:18:45.130Z,102302.00
2024-01-25T17:21:18.021Z,102299.56
2024-01-25T17:23:51.329Z,102300.66
2024-01-25T17:26:24.744Z,102291.94
2024-01-25T17:28:55.115Z,102304.44
2024-01-25T17:31:25.132Z,102305.25
2024-01-25T17:33:57.947Z,102286.53
2024-01-25T17:36:28.348Z,102285.72
2024-01-25T17:38:58.343Z,102295.75
2024-01-25T17:41:28.328Z,102293.56
2024-01-25T17:43:58.773Z,102303.91
2024-01-25T17:46:28.707Z,102302.28
2024-01-25T17:49:01.557Z,102301.72
2024-01-25T17:51:31.731Z,102306.88
2024-01-25T17:54:07.518Z,102302.81
2024-01-25T17:56:43.444Z,102295.75
2024-01-25T17:59:17.001Z,102302.81
2024-01-25T18:01:47.063Z,102309.31
2024-01-25T18:04:19.515Z,102305.28
2024-01-25T18:06:49.448Z,102308.47
2024-01-25T18:09:19.380Z,102310.66
2024-01-25T18:11:49.378Z,102307.97
2024-01-25T18:14:19.249Z,102303.34
2024-01-25T18:16:49.017Z,102293.59
2024-01-25T18:19:21.769Z,102287.63
2024-01-25T18:21:55.575Z,102294.69
2024-01-25T18:24:26.150Z,102290.06
2024-01-25T18:27:01.026Z,102292.22
2024-01-25T18:29:41.196Z,102280.84
2024-01-25T18:32:12.661Z,102292.75
2024-01-25T18:34:47.266Z,102294.66
2024-01-25T18:37:19.944Z,102294.66
2024-01-25T18:39:51.875Z,102288.72
2024-01-25T18:42:23.444Z,102285.44
2024-01-25T18:44:53.388Z,102283.28
2024-01-25T18:47:24.890Z,102286.53
2024-01-25T18:49:57.621Z,102284.34
2024-01-25T18:52:27.497Z,102267.56
2024-01-25T18:54:58.147Z,102268.94
2024-01-25T18:57:28.688Z,102269.72
2024-01-25T18:59:59.365Z,102267.56
2024-01-25T19:02:29.870Z,102266.19
2024-01-25T19:05:03.423Z,102266.47
2024-01-25T19:07:34.021Z,102264.31
2024-01-25T19:10:04.082Z,102266.22
2024-01-25T19:12:33.999Z,102271.88
2024-01-25T19:15:06.014Z,102262.69
2024-01-25T19:17:35.876Z,102264.31
2024-01-25T19:20:09.346Z,102263.78
2024-01-25T19:22:39.155Z,102259.97
2024-01-25T19:25:09.386Z,102265.38
2024-01-25T19:27:39.514Z,102252.91
2024-01-25T19:30:08.333Z,102248.84
2024-01-25T19:32:38.419Z,102244.50
2024-01-25T19:35:23.683Z,102245.06
2024-01-25T19:38:00.083Z,102240.44
2024-01-25T19:40:48.625Z,102244.50
2024-01-25T19:43:21.446Z,102249.13
2024-01-25T19:46:03.119Z,102247.50
2024-01-25T19:48:38.934Z,102253.47
2024-01-25T19:51:25.432Z,102231.22
2024-01-25T19:54:10.095Z,102230.13
2024-01-25T19:56:40.017Z,102226.63
2024-01-25T19:59:11.139Z,102230.41
2024-01-25T20:01:44.689Z,102233.94
2024-01-25T20:04:18.135Z,102233.13
2024-01-25T20:06:54.290Z,102223.09
2024-01-25T20:09:33.287Z,102222.00
2024-01-25T20:12:13.374Z,102224.47
2024-01-25T20:14:46.136Z,102220.94
2024-01-25T20:17:16.828Z,102228.00
2024-01-25T20:19:56.024Z,102228.00
2024-01-25T20:22:28.739Z,102214.97
2024-01-25T20:24:59.128Z,102214.16
2024-01-25T20:27:42.627Z,102200.84
2024-01-25T20:30:22.326Z,102201.94
2024-01-25T20:32:58.661Z,102202.19
2024-01-25T20:35:28.546Z,102204.63
2024-01-25T20:38:21.314Z,102198.94
2024-01-25T20:40:51.591Z,102191.06
2024-01-25T20:43:26.800Z,102191.06
2024-01-25T20:46:00.237Z,102184.59
2024-01-25T20:48:39.665Z,102179.16
2024-01-25T20:51:18.256Z,102177.25
2024-01-25T20:54:01.394Z,102185.13
2024-01-25T20:56:36.315Z,102180.22
2024-01-25T20:59:06.289Z,102182.94
2024-01-25T21:01:54.970Z,102183.75
2024-01-25T21:04:31.289Z,102180.78
2024-01-25T21:07:03.863Z,102176.44
2024-01-25T21:09:49.361Z,102177.50
2024-01-25T21:12:20.565Z,102179.41
2024-01-25T21:14:51.222Z,102171.00
2024-01-25T21:17:21.052Z,102160.97
2024-01-25T21:19:51.041Z,102157.16
2024-01-25T21:22:21.004Z,102159.03
2024-01-25T21:24:55.018Z,102148.72
2024-01-25T21:27:24.975Z,102156.84
2024-01-25T21:29:54.913Z,102146.53
2024-01-25T21:32:24.835Z,102139.47
2024-01-25T21:34:54.823Z,102139.47
2024-01-25T21:37:25.718Z,102143.28
2024-01-25T21:39:58.265Z,102137.88
2024-01-25T21:42:29.052Z,102130.00
2024-01-25T21:44:58.994Z,102130.00
2024-01-25T21:47:28.983Z,102129.22
2024-01-25T21:49:59.051Z,102123.78
2024-01-25T21:52:29.144Z,102115.13
2024-01-25T21:55:02.270Z,102112.94
2024-01-25T21:57:39.377Z,102103.44
2024-01-25T22:00:10.740Z,102100.47
2024-01-25T22:02:41.445Z,102108.84
2024-01-25T22:05:14.256Z,102114.53
2024-01-25T22:07:44.192Z,102119.97
2024-01-25T22:10:19.646Z,102125.63
2024-01-25T22:12:49.862Z,102120.53
2024-01-25T22:15:20.151Z,102115.09
2024-01-25T22:17:51.876Z,102128.06
2024-01-25T22:20:21.939Z,102121.56
2024-01-25T22:22:51.875Z,102122.66
2024-01-25T22:25:28.369Z,102124.25
2024-01-25T22:28:00.838Z,102124.25
2024-01-25T22:30:30.983Z,102129.69
2024-01-25T22:33:01.143Z,102121.56
2024-01-25T22:35:31.006Z,102119.94
2024-01-25T22:38:00.868Z,102124.84
2024-01-25T22:40:33.325Z,102118.84
2024-01-25T22:43:03.297Z,102118.84
2024-01-25T22:45:33.291Z,102113.41
2024-01-25T22:48:03.486Z,102109.59
2024-01-25T22:50:33.486Z,102109.06
2024-01-25T22:53:04.631Z,102106.34
2024-01-25T22:55:37.244Z,102106.06
2024-01-25T22:58:07.634Z,102107.41
2024-01-25T23:00:42.167Z,102107.38
2024-01-25T23:03:12.367Z,102107.38
2024-01-25T23:05:42.355Z,102110.31
2024-01-25T23:08:12.356Z,102108.97
2024-01-25T23:10:45.107Z,102118.75
2024-01-25T23:13:16.149Z,102119.25
2024-01-25T23:15:46.208Z,102107.31
2024-01-25T23:18:16.714Z,102115.44
2024-01-25T23:20:47.246Z,102118.16
2024-01-25T23:23:17.225Z,102120.88
2024-01-25T23:25:50.124Z,102105.69
2024-01-25T23:28:20.416Z,102109.50
2024-01-25T23:30:50.360Z,102111.94
2024-01-25T23:33:23.728Z,102101.88
2024-01-25T23:35:54.163Z,102095.41
2024-01-25T23:38:25.344Z,102097.31
2024-01-25T23:41:00.814Z,102091.59
2024-01-25T23:43:33.896Z,102097.56
2024-01-25T23:46:04.922Z,102090.22
2024-01-25T23:48:37.991Z,102093.72
2024-01-25T23:51:11.407Z,102082.31
2024-01-25T23:53:41.525Z,102084.47
2024-01-25T23:56:14.026Z,102083.34
2024-01-25T23:58:44.265Z,102092.03
